San Benito, TX

1:35 AM CDT on October 22, 2014 (GMT -0500)
Valley International | Change Station
CLOSE
Current Station
Airport
Location: Harlingen,
Elevation: 36 ft
Nearby Weather Stations

Elev 36 ft 26.23 °N, 97.65 °W | Updated 43 minutes ago

Overcast
Overcast
73 °F
Feels Like 73 °F
N
6
Wind Variable Wind from NE

Today
High -- | Low -- °F
--% Chance of Precip.
Yesterday
High -- | Low -- °F
Precip. -- in
7:33 AM 6:56 PM
Waning Crescent, 3% visible
Pressure 29.95 in
Visibility 10.0 miles
Clouds Overcast 8500 ft
Dew Point 70 °F
Humidity 90%
Rainfall 0.01 in
Snow Depth Not available.
UV 0 out of 12
Pollen 5.80 out of 12
Air Quality Not available.
Flu Activity Not available.
METAR KHRL 220552Z AUTO 05005KT 10SM OVC085 23/21 A2995 RMK AO2 SLP140 P0001 60008 T02280211 10250 20228 402830200 58002

More Conditions Fewer Conditions

Pressure 29.95 in
Visibility 10.0 miles
Clouds Overcast 8500 ft
Dew Point 70 °F
Humidity 90%
Rainfall 0.01 in
Snow Depth Not available.
UV 0 out of 12
Pollen 5.80 out of 12
Air Quality Not available.
Flu Activity Not available.
METAR KHRL 220552Z AUTO 05005KT 10SM OVC085 23/21 A2995 RMK AO2 SLP140 P0001 60008 T02280211 10250 20228 402830200 58002

More Conditions Fewer Conditions

10-Day Weather Forecast

Almanac

Astronomy

Oct. 22, 2014 Rise Set
Actual Time 7:33 AM CDT 6:56 PM CDT
Civil Twilight 7:10 AM CDT 7:19 PM CDT
Nautical Twilight 6:43 AM CDT 7:46 PM CDT
Astronomical Twilight 6:16 AM CDT 8:13 PM CDT
Moon 6:23 AM CDT 6:18 PM CDT
Length of Visible Light 12h 09m
Length of Day
11h 22m
Tomorrow will be 1m 25s shorter.
Waning Crescent, 3% of the Moon is Illuminated
Today
Waning Crescent
Oct 23
New
Oct 30
First Quarter
Nov 6
Full
Nov 14
Last Quarter

Today's Extremes

State Highs State Lows

Community

WunderPhotos

Upload Photos

1,763,884 photos uploaded!

Nearby

Snow Depth

Station Depth Elevation
No new snow has been reported.

Earthquake Activity

City Distance Mag. Time & Date
No recent earthquake activity has been reported nearby.
Minimum magnitude displayed is 2.5.

Coastal Water Temperatures

Place Temperature
Port Isabel, TX 79.0 °F
Baffin Bay Point of Rocks, TX 82.9 °F
South Bird Island, TX 75.9 °F
Malaquite Beach (Corpus Christi), TX 78.1 °F
Packery Channel, TX 75.9 °F

Nearby Weather Stations